Sweeney Granite Mountains, California Weather observations

Data are for 10 minute period ending at time listed.
 Day   Time   Solar   Ave.   Ave.  Ave.  Vector  Max.   Baro.   Total    
  of    of     Rad.   Air    Rel.  Wind   Wind   Wind  Press.  Precip.   
Year   Day            Temp.  Hum.  Speed  Dir.   Gust                    
2014   (PST)  Kw/m2    F      %     mph   deg.    mph    mb.     in.     
-------------------------------------------------------------------------
 273    1:10   0.00   63.8    31    9.5   312    13.7   868.3    0.00 
 273    1:20   0.00   63.6    32    8.8   315    12.1   868.3    0.00 
 273    1:30   0.00   63.4    31    8.0   318    11.2   868.3    0.00 
 273    1:40   0.00   63.4    31    7.4   323    10.2   868.3    0.00 
 273    1:50   0.00   63.3    32    7.4   320    10.2   868.2    0.00 
 273    2:00   0.00   62.4    33    4.3   317     9.7   868.1    0.00 
 273    2:10   0.00   62.2    33    6.3   287    12.0   868.0    0.00 
 273    2:20   0.00   62.3    34    8.1   290    13.4   867.9    0.00 
 273    2:30   0.00   62.7    34   10.6   305    15.7   867.8    0.00 
 273    2:40   0.00   62.9    33   12.5   304    19.0   867.7    0.00 
 273    2:50   0.00   62.7    34   13.0   305    19.8   867.6    0.00 
 273    3:00   0.00   62.5    34   11.0   302    17.2   867.5    0.00 
 273    3:10   0.00   62.7    34   10.7   303    15.3   867.5    0.00 
 273    3:20   0.00   62.7    34    9.6   302    14.6   867.5    0.00 
 273    3:30   0.00   62.8    34    9.6   302    12.6   867.5    0.00 
 273    3:40   0.00   62.8    34    9.8   302    15.0   867.5    0.00 
 273    3:50   0.00   62.9    34    9.3   302    13.5   867.5    0.00 
 273    4:00   0.00   62.8    34    9.0   304    13.2   867.5    0.00 
 273    4:10   0.00   63.1    34    8.5   308    12.6   867.5    0.00 
 273    4:20   0.00   63.0    34    7.7   305    12.5   867.5    0.00 
 273    4:30   0.00   63.0    34    8.1   307    11.9   867.5    0.00 
 273    4:40   0.00   63.0    34    9.1   308    13.8   867.6    0.00 
 273    4:50   0.00   62.9    34    8.6   312    13.6   867.6    0.00 
 273    5:00   0.00   62.8    33    9.0   312    13.2   867.6    0.00 
 273    5:10   0.00   62.6    34    8.3   306    12.3   867.6    0.00 
 273    5:20   0.00   62.7    33    8.5   310    11.9   867.6    0.00 
 273    5:30   0.00   62.8    33    8.9   309    12.4   867.5    0.00 
 273    5:40   0.00   62.9    33    8.6   310    12.1   867.6    0.00 
 273    5:50   0.00   63.1    33    8.0   312    10.8   867.6    0.00 
 273    6:00   0.02   63.4    32    7.7   312    10.6   867.6    0.00 
 273    6:10   0.04   63.7    32    7.0   306     9.3   867.6    0.00 
 273    6:20   0.08   64.3    32    6.1   305     8.6   867.6    0.00 
 273    6:30   0.11   65.5    31    4.4   291     7.4   867.7    0.00 
 273    6:40   0.14   66.7    29    3.6   300     5.6   867.9    0.00 
 273    6:50   0.17   67.7    27    3.3   300     5.6   868.0    0.00 
 273    7:00   0.21   68.5    27    3.4   307     5.6   868.1    0.00 
 273    7:10   0.24   68.9    26    3.3   318     5.3   868.2    0.00 
 273    7:20   0.28   69.4    26    2.8   319     4.4   868.2    0.00 
 273    7:30   0.32   71.6    24    2.4    99     6.7   868.2    0.00 
 273    7:40   0.35   71.2    25    3.5   109     5.8   868.4    0.00 
 273    7:50   0.39   71.0    25    3.6   108     6.6   868.4    0.00 
 273    8:00   0.43   70.7    25    2.4   190     6.4   868.6    0.00 
 273    8:10   0.46   71.8    24    3.4   134     7.0   868.8    0.00 
 273    8:20   0.49   71.5    24    4.0   139     6.9   868.9    0.00 
 273    8:30   0.53   71.3    25    4.1   114     8.5   869.0    0.00 
 273    8:40   0.56   71.5    25    4.2   137     7.5   868.9    0.00 
 273    8:50   0.59   71.7    24    3.9    76     7.5   869.0    0.00 
 273    9:00   0.62   72.3    24    2.7    64     6.4   869.0    0.00 
 273    9:10   0.64   72.5    24    3.7    74     7.8   869.0    0.00 
 273    9:20   0.67   72.6    23    2.6   120     7.3   869.0    0.00 
 273    9:30   0.69   73.9    23    4.3    93     8.1   869.0    0.00 
 273    9:40   0.72   73.3    23    3.3   142    11.2   869.1    0.00 
 273    9:50   0.74   73.2    23    4.5   101     8.9   869.1    0.00 
 273   10:00   0.76   74.2    22    2.6   143     8.7   868.9    0.00 
 273   10:10   0.77   74.7    22    2.9   207     7.5   868.8    0.00 
 273   10:20   0.79   75.0    23    3.6   192    11.2   868.8    0.00 
 273   10:30   0.81   74.2    24    5.6   110    10.1   868.8    0.00 
 273   10:40   0.81   73.3    24    4.9   137    10.9   868.8    0.00 
 273   10:50   0.82   74.3    24    3.8   131    10.7   868.7    0.00 
 273   11:00   0.83   74.2    24    6.3   118    14.0   868.6    0.00 
 273   11:10   0.85   73.9    24    5.0   118    11.5   868.6    0.00 
 273   11:20   0.85   74.9    23    4.1   122     9.9   868.5    0.00 
 273   11:30   0.85   74.5    23    4.5   153    11.7   868.5    0.00 
 273   11:40   0.85   75.1    22    4.2   190     9.9   868.4    0.00 
 273   11:50   0.86   74.1    23    4.4   121     9.6   868.3    0.00 
 273   12:00   0.85   76.1    21    3.8   252     9.4   868.1    0.00 
 273   12:10   0.85   75.0    22    5.6   195    11.3   868.0    0.00 
 273   12:20   0.84   75.4    21    4.4   206    10.5   867.9    0.00 
 273   12:30   0.83   74.6    22    4.6   117    13.6   867.7    0.00 
 273   12:40   0.80   75.6    21    4.4   167    12.1   867.6    0.00 
 273   12:50   0.81   76.1    21    2.8   160    10.7   867.4    0.00 
 273   13:00   0.79   75.3    21    6.3   210    12.5   867.3    0.00 
 273   13:10   0.78   75.0    21    4.1   234     8.2   867.2    0.00 
 273   13:20   0.76   75.6    21    5.1   201    11.8   867.0    0.00 
 273   13:30   0.74   74.6    22    5.8   208    13.1   867.0    0.00 
 273   13:40   0.72   75.4    21    2.8   267     6.4   866.9    0.00 
 273   13:50   0.69   75.9    20    4.6   223    11.0   866.8    0.00 
 273   14:00   0.67   75.4    20    2.9   199     6.6   866.7    0.00 
 273   14:10   0.65   75.7    20    4.4   228     8.2   866.6    0.00 
 273   14:20   0.62   76.2    20    4.2   168    10.0   866.5    0.00 
 273   14:30   0.59   75.5    20    3.8   158    11.3   866.4    0.00 
 273   14:40   0.57   76.0    20    2.8   173     9.3   866.3    0.00 
 273   14:50   0.54   76.0    19    4.3   186    12.1   866.3    0.00 
 273   15:00   0.51   76.1    19    2.5    76     7.3   866.2    0.00 
 273   15:10   0.47   75.6    19    3.0    88     7.2   866.2    0.00 
 273   15:20   0.44   75.9    19    3.8   178    10.9   866.1    0.00 
 273   15:30   0.40   75.9    19    3.8   114    10.1   866.0    0.00 
 273   15:40   0.37   74.9    19    4.0    94    10.1   866.0    0.00 
 273   15:50   0.33   74.8    19    2.2    21     7.7   866.0    0.00 
 273   16:00   0.30   75.0    19    3.4   184    10.1   865.9    0.00 
 273   16:10   0.23   75.8    19    2.4   190     6.6   865.8    0.00 
 273   16:20   0.02   73.4    20    3.6   249     7.5   865.7    0.00 
 273   16:30   0.01   72.5    21    3.8   213    10.5   865.6    0.00 
 273   16:40   0.01   72.6    21    5.3   217     9.9   865.5    0.00 
 273   16:50   0.01   72.0    21    5.9   227     9.1   865.4    0.00 
 273   17:00   0.01   71.5    21    5.0   243     9.6   865.4    0.00 
 273   17:10   0.01   71.3    21    5.5   239    11.2   865.4    0.00 
 273   17:20   0.00   70.8    22    3.0   262     8.6   865.3    0.00 
 273   17:30   0.00   70.1    22    1.7   251     4.0   865.3    0.00 
 273   17:40   0.00   70.1    22    3.1   248     5.8   865.3    0.00 
 273   17:50   0.00   69.2    23    1.4   277     3.4   865.2    0.00 
 273   18:00   0.00   68.5    23    2.3   274     3.7   865.0    0.00 
 273   18:10   0.00   68.6    23    3.5   249     7.1   865.0    0.00 
 273   18:20   0.00   67.9    24    1.7   285     3.6   864.9    0.00 
 273   18:30   0.00   67.9    24    1.6   271     2.8   864.9    0.00 
 273   18:40   0.00   66.0    25    1.7   279     2.6   864.9    0.00 
 273   18:50   0.00   64.5    26    1.5   273     2.7   864.9    0.00 
 273   19:00   0.00   63.9    27    0.6   323     1.4   864.9    0.00 
 273   19:10   0.00   62.6    28    0.8   242     2.6   865.0    0.00 
 273   19:20   0.00   63.5    27    1.1   246     2.5   865.0    0.00 
 273   19:30   0.00   64.6    26    0.3   166     1.5   865.0    0.00 
 273   19:40   0.00   63.0    28    0.2    64     1.0   865.0    0.00 
 273   19:50   0.00   61.4    29    0.2   303     1.0   865.0    0.00 
 273   20:00   0.00   60.6    30    0.8   295     2.9   865.0    0.00 
 273   20:10   0.00   62.0    29    2.1   288     2.9   865.0    0.00 
 273   20:20   0.00   61.8    30    2.4   274     3.3   864.9    0.00 
 273   20:30   0.00   61.3    30    2.4   278     2.9   864.9    0.00 
 273   20:40   0.00   60.0    31    1.5   297     2.6   864.8    0.00 
 273   20:50   0.00   62.1    29    1.7   281     3.2   864.9    0.00 
 273   21:00   0.00   62.7    29    3.3   276     4.2   865.0    0.00 
 273   21:10   0.00   62.8    29    3.5   277     4.2   865.0    0.00 
 273   21:20   0.00   61.2    30    3.7   280     4.5   865.0    0.00 
 273   21:30   0.00   62.5    29    4.0   281     5.1   865.0    0.00 
 273   21:40   0.00   63.1    28    4.5   282     6.1   865.0    0.00 
 273   21:50   0.00   63.2    28    3.6   282     5.6   864.9    0.00 
 273   22:00   0.00   63.6    27    3.2   282     4.5   864.9    0.00 
 273   22:10   0.00   63.0    28    3.7   284     4.9   864.8    0.00 
 273   22:20   0.00   63.1    28    3.9   280     4.7   864.7    0.00 
 273   22:30   0.00   61.9    29    4.2   274     5.1   864.7    0.00 
 273   22:40   0.00   62.8    28    2.8   280     4.6   864.6    0.00 
 273   22:50   0.00   63.0    28    1.9   273     3.4   864.6    0.00 
 273   23:00   0.00   63.0    28    2.5   285     3.7   864.6    0.00 
 273   23:10   0.00   62.9    28    2.4   268     3.9   864.6    0.00 
 273   23:20   0.00   62.3    29    3.2   284     4.5   864.6    0.00 
 273   23:30   0.00   60.2    32    2.9   280     3.9   864.6    0.00 
 273   23:40   0.00   61.3    31    3.2   289     4.3   864.5    0.00 
 273   23:50   0.00   60.9    32    2.3   308     3.7   864.4    0.00 
 274    0:00   0.00   61.6    32    0.8   281     3.1   864.3    0.00 
 274    0:10   0.00   61.8    31    2.3   295     4.1   864.3    0.00 
 274    0:20   0.00   59.4    34    3.3   276     5.1   864.3    0.00 
 274    0:30   0.00   61.4    32    3.2   273     4.2   864.3    0.00 
 274    0:40   0.00   58.9    35    3.7   273     6.4   864.3    0.00 
 274    0:50   0.00   62.3    31    4.6   295     6.2   864.3    0.00 
 274    1:00   0.00   63.9    29    5.4   298     8.8   864.3    0.00 

Return to Sweeney Granite Mountains graphs page.


Western Regional Climate Center,wrcc@dri.edu